createdAt,value
2019-05-12T00:01:13.181Z,2.83
2019-05-12T00:03:41.984Z,1.97
2019-05-12T00:06:11.136Z,1.53
2019-05-12T00:08:39.937Z,1.73
2019-05-12T00:11:09.060Z,1.60
2019-05-12T00:13:38.595Z,1.70
2019-05-12T00:16:08.790Z,1.93
2019-05-12T00:18:37.957Z,2.00
2019-05-12T00:21:08.829Z,2.30
2019-05-12T00:23:58.232Z,1.93
2019-05-12T00:26:28.307Z,1.93
2019-05-12T00:28:58.799Z,1.87
2019-05-12T00:31:28.144Z,2.00
2019-05-12T00:33:58.683Z,2.30
2019-05-12T00:36:29.410Z,2.20
2019-05-12T00:38:58.317Z,2.50
2019-05-12T00:41:28.378Z,2.10
2019-05-12T00:43:58.215Z,2.80
2019-05-12T00:46:27.861Z,2.80
2019-05-12T00:49:18.470Z,3.20
2019-05-12T00:51:48.567Z,2.73
2019-05-12T00:54:17.902Z,2.30
2019-05-12T00:56:49.310Z,2.80
2019-05-12T00:59:19.186Z,2.30
2019-05-12T01:01:48.556Z,2.47
2019-05-12T01:04:17.714Z,2.77
2019-05-12T01:06:48.673Z,2.33
2019-05-12T01:09:17.785Z,3.07
2019-05-12T01:11:48.126Z,2.03
2019-05-12T01:14:18.666Z,2.70
2019-05-12T01:16:48.622Z,2.50
2019-05-12T01:19:18.518Z,2.50
2019-05-12T01:22:08.110Z,2.17
2019-05-12T01:24:57.850Z,2.20
2019-05-12T01:27:48.249Z,2.10
2019-05-12T01:30:18.084Z,2.67
2019-05-12T01:32:48.399Z,2.30
2019-05-12T01:35:18.546Z,2.07
2019-05-12T01:37:48.387Z,2.30
2019-05-12T01:40:19.099Z,1.73
2019-05-12T01:42:48.769Z,1.87
2019-05-12T01:45:18.142Z,2.50
2019-05-12T01:47:48.572Z,1.80
2019-05-12T01:50:17.928Z,1.87
2019-05-12T01:52:47.837Z,2.00
2019-05-12T01:55:18.588Z,2.20
2019-05-12T01:57:48.616Z,1.70
2019-05-12T02:00:18.359Z,1.80
2019-05-12T02:02:48.118Z,1.90
2019-05-12T02:05:18.329Z,1.60
2019-05-12T02:07:50.401Z,1.77
2019-05-12T02:10:19.347Z,2.10
2019-05-12T02:12:49.191Z,1.83
2019-05-12T02:15:18.740Z,2.07
2019-05-12T02:17:48.282Z,1.70
2019-05-12T02:20:18.060Z,2.13
2019-05-12T02:22:47.872Z,1.70
2019-05-12T02:25:18.421Z,1.60
2019-05-12T02:27:47.819Z,1.67
2019-05-12T02:30:20.285Z,1.83
2019-05-12T02:32:53.717Z,1.60
2019-05-12T02:35:19.327Z,1.60
2019-05-12T02:37:48.140Z,2.67
2019-05-12T02:40:17.129Z,1.83
2019-05-12T02:42:46.569Z,1.80
2019-05-12T02:45:15.865Z,1.70
2019-05-12T02:47:45.850Z,2.70
2019-05-12T02:50:20.458Z,1.70
2019-05-12T02:52:49.880Z,1.90
2019-05-12T02:55:21.461Z,1.43
2019-05-12T02:57:50.455Z,1.70
2019-05-12T03:00:19.747Z,1.80
2019-05-12T03:02:48.631Z,1.57
2019-05-12T03:05:17.507Z,2.00
2019-05-12T03:07:47.648Z,1.47
2019-05-12T03:10:16.615Z,1.40
2019-05-12T03:12:45.511Z,1.57
2019-05-12T03:15:15.359Z,1.53
2019-05-12T03:17:44.522Z,1.80
2019-05-12T03:20:15.423Z,1.70
2019-05-12T03:22:44.967Z,1.87
2019-05-12T03:25:23.993Z,1.47
2019-05-12T03:27:44.651Z,1.90
2019-05-12T03:30:18.968Z,1.30
2019-05-12T03:32:47.449Z,1.70
2019-05-12T03:35:17.430Z,2.20
2019-05-12T03:37:45.772Z,1.70
2019-05-12T03:40:14.706Z,1.70
2019-05-12T03:42:44.583Z,1.70
2019-05-12T03:45:35.692Z,1.97
2019-05-12T03:48:04.296Z,1.37
2019-05-12T03:50:35.211Z,1.60
2019-05-12T03:53:10.258Z,1.47
2019-05-12T03:55:41.043Z,1.90
2019-05-12T03:58:06.312Z,1.40
2019-05-12T04:00:36.054Z,1.30
2019-05-12T04:03:05.625Z,1.70
2019-05-12T04:05:35.436Z,1.90
2019-05-12T04:08:05.768Z,1.53
2019-05-12T04:10:36.299Z,1.60
2019-05-12T04:13:05.848Z,2.37
2019-05-12T04:15:36.930Z,1.73
2019-05-12T04:18:06.539Z,1.33
2019-05-12T04:20:54.858Z,1.53
2019-05-12T04:23:24.760Z,2.13
2019-05-12T04:26:07.149Z,1.53
2019-05-12T04:28:24.716Z,2.00
2019-05-12T04:30:54.581Z,1.53
2019-05-12T04:33:25.746Z,1.50
2019-05-12T04:35:55.405Z,1.80
2019-05-12T04:38:25.021Z,1.20
2019-05-12T04:40:55.280Z,1.63
2019-05-12T04:43:25.354Z,1.53
2019-05-12T04:45:54.977Z,2.30
2019-05-12T04:48:25.736Z,1.70
2019-05-12T04:50:54.980Z,2.23
2019-05-12T04:53:25.162Z,2.73
2019-05-12T04:56:19.346Z,3.30
2019-05-12T04:58:45.209Z,2.83
2019-05-12T05:01:15.525Z,2.53
2019-05-12T05:03:44.677Z,2.30
2019-05-12T05:06:14.838Z,2.73
2019-05-12T05:08:44.443Z,2.57
2019-05-12T05:11:14.794Z,2.20
2019-05-12T05:13:44.569Z,2.40
2019-05-12T05:16:14.443Z,2.37
2019-05-12T05:18:44.075Z,2.30
2019-05-12T05:21:14.003Z,2.40
2019-05-12T05:23:44.313Z,2.37
2019-05-12T05:26:23.907Z,3.10
2019-05-12T05:28:43.914Z,3.00
2019-05-12T05:31:14.039Z,2.30
2019-05-12T05:33:43.579Z,2.40
2019-05-12T05:36:15.113Z,2.27
2019-05-12T05:38:43.756Z,3.63
2019-05-12T05:41:13.527Z,2.10
2019-05-12T05:43:43.803Z,2.20
2019-05-12T05:46:13.780Z,2.27
2019-05-12T05:48:43.965Z,2.47
2019-05-12T05:51:13.810Z,2.63
2019-05-12T05:53:44.268Z,2.00
2019-05-12T05:56:14.688Z,2.03
2019-05-12T05:58:46.972Z,2.10
2019-05-12T06:01:34.760Z,2.80
2019-05-12T06:04:08.269Z,2.00
2019-05-12T06:06:34.939Z,2.60
2019-05-12T06:09:06.808Z,2.60
2019-05-12T06:11:36.132Z,2.60
2019-05-12T06:14:11.449Z,1.83
2019-05-12T06:16:35.552Z,1.80
2019-05-12T06:19:04.440Z,1.70
2019-05-12T06:21:36.371Z,1.80
2019-05-12T06:24:08.701Z,2.10
2019-05-12T06:26:35.769Z,2.00
2019-05-12T06:29:05.044Z,1.47
2019-05-12T06:31:34.184Z,1.70
2019-05-12T06:34:06.264Z,1.00
2019-05-12T06:36:34.201Z,1.57
2019-05-12T06:39:04.479Z,1.70
2019-05-12T06:41:33.942Z,1.40
2019-05-12T06:44:03.825Z,1.43
2019-05-12T06:46:34.290Z,1.10
2019-05-12T06:49:10.132Z,1.60
2019-05-12T06:51:34.703Z,1.73
2019-05-12T06:54:10.391Z,1.43
2019-05-12T06:56:57.921Z,1.30
2019-05-12T06:59:24.618Z,1.40
2019-05-12T07:01:56.147Z,1.30
2019-05-12T07:04:25.209Z,1.40
2019-05-12T07:07:03.715Z,2.67
2019-05-12T07:09:35.322Z,1.60
2019-05-12T07:12:06.954Z,1.40
2019-05-12T07:14:34.569Z,2.43
2019-05-12T07:17:10.060Z,1.50
2019-05-12T07:19:39.157Z,2.00
2019-05-12T07:22:19.948Z,2.80
2019-05-12T07:24:40.937Z,1.77
2019-05-12T07:27:09.573Z,1.60
2019-05-12T07:29:38.377Z,2.33
2019-05-12T07:32:16.572Z,1.30
2019-05-12T07:34:38.157Z,1.63
2019-05-12T07:37:07.046Z,1.70
2019-05-12T07:39:44.523Z,1.00
2019-05-12T07:42:06.965Z,1.10
2019-05-12T07:44:40.019Z,1.50
2019-05-12T07:47:07.093Z,1.53
2019-05-12T07:49:38.579Z,1.40
2019-05-12T07:52:07.017Z,1.60
2019-05-12T07:54:39.423Z,1.43
2019-05-12T07:57:12.189Z,1.10
2019-05-12T07:59:40.934Z,1.67
2019-05-12T08:02:08.144Z,1.00
2019-05-12T08:04:39.942Z,1.70
2019-05-12T08:07:07.564Z,0.90
2019-05-12T08:09:36.766Z,1.10
2019-05-12T08:12:09.784Z,1.73
2019-05-12T08:14:36.543Z,0.90
2019-05-12T08:17:10.986Z,1.40
2019-05-12T08:19:36.451Z,0.90
2019-05-12T08:22:05.287Z,1.13
2019-05-12T08:24:43.194Z,1.20
2019-05-12T08:27:10.945Z,1.13
2019-05-12T08:29:39.821Z,0.93
2019-05-12T08:32:09.932Z,1.00
2019-05-12T08:34:43.736Z,0.90
2019-05-12T08:37:18.770Z,1.40
2019-05-12T08:39:53.417Z,0.93
2019-05-12T08:42:23.877Z,1.13
2019-05-12T08:44:54.267Z,1.43
2019-05-12T08:47:28.828Z,2.60
2019-05-12T08:49:58.314Z,1.90
2019-05-12T08:52:30.483Z,0.90
2019-05-12T08:55:04.101Z,2.50
2019-05-12T08:57:40.822Z,2.07
2019-05-12T09:00:08.674Z,1.20
2019-05-12T09:02:39.941Z,0.90
2019-05-12T09:05:08.694Z,1.20
2019-05-12T09:07:39.852Z,0.80
2019-05-12T09:10:08.260Z,1.47
2019-05-12T09:12:37.567Z,0.87
2019-05-12T09:15:08.353Z,1.07
2019-05-12T09:17:49.101Z,1.17
2019-05-12T09:20:10.134Z,1.40
2019-05-12T09:22:44.929Z,0.90
2019-05-12T09:25:15.138Z,1.57
2019-05-12T09:27:49.496Z,1.10
2019-05-12T09:30:29.219Z,0.90
2019-05-12T09:32:58.486Z,1.30
2019-05-12T09:35:28.592Z,0.90
2019-05-12T09:37:58.275Z,0.80
2019-05-12T09:40:27.266Z,1.07
2019-05-12T09:43:00.302Z,1.00
2019-05-12T09:45:33.399Z,0.90
2019-05-12T09:48:04.943Z,1.00
2019-05-12T09:50:37.792Z,0.93
2019-05-12T09:53:11.565Z,1.37
2019-05-12T09:55:43.619Z,0.93
2019-05-12T09:58:23.073Z,0.83
2019-05-12T10:00:45.696Z,1.10
2019-05-12T10:03:14.673Z,0.63
2019-05-12T10:05:44.239Z,1.20
2019-05-12T10:08:13.989Z,1.03
2019-05-12T10:10:46.749Z,1.53
2019-05-12T10:13:15.250Z,0.90
2019-05-12T10:15:44.411Z,0.90
2019-05-12T10:18:14.651Z,0.80
2019-05-12T10:20:44.275Z,0.77
2019-05-12T10:23:18.086Z,0.90
2019-05-12T10:25:44.693Z,0.87
2019-05-12T10:28:16.320Z,0.70
2019-05-12T10:30:47.181Z,0.83
2019-05-12T10:33:16.582Z,0.70
2019-05-12T10:35:45.776Z,0.70
2019-05-12T10:38:14.601Z,0.90
2019-05-12T10:40:44.414Z,1.27
2019-05-12T10:43:14.690Z,0.60
2019-05-12T10:45:44.243Z,0.60
2019-05-12T10:48:14.155Z,0.90
2019-05-12T10:50:44.239Z,0.80
2019-05-12T10:53:15.787Z,0.60
2019-05-12T10:55:44.516Z,0.57
2019-05-12T10:58:14.614Z,1.03
2019-05-12T11:00:44.390Z,0.80
2019-05-12T11:03:15.426Z,0.70
2019-05-12T11:05:44.795Z,0.67
2019-05-12T11:08:14.487Z,1.20
2019-05-12T11:10:43.722Z,0.60
2019-05-12T11:13:14.502Z,0.63
2019-05-12T11:15:46.254Z,0.93
2019-05-12T11:18:24.849Z,0.60
2019-05-12T11:20:50.169Z,1.00
2019-05-12T11:23:19.507Z,0.73
2019-05-12T11:25:48.407Z,0.60
2019-05-12T11:28:18.293Z,0.83
2019-05-12T11:30:47.552Z,0.63
2019-05-12T11:33:16.507Z,0.87
2019-05-12T11:35:45.428Z,0.40
2019-05-12T11:38:14.248Z,0.97
2019-05-12T11:40:43.897Z,0.80
2019-05-12T11:43:14.446Z,0.90
2019-05-12T11:45:44.176Z,0.70
2019-05-12T11:48:14.390Z,0.70
2019-05-12T11:50:47.864Z,0.70
2019-05-12T11:53:14.243Z,0.60
2019-05-12T11:55:43.776Z,0.73
2019-05-12T11:58:13.442Z,1.03
2019-05-12T12:00:45.333Z,0.93
2019-05-12T12:03:17.784Z,1.10
2019-05-12T12:05:45.118Z,0.87
2019-05-12T12:08:14.570Z,0.80
2019-05-12T12:10:43.809Z,0.97
2019-05-12T12:13:14.084Z,0.97
2019-05-12T12:15:43.208Z,0.70
2019-05-12T12:18:13.768Z,0.70
2019-05-12T12:20:44.283Z,1.00
2019-05-12T12:23:14.098Z,0.77
2019-05-12T12:25:48.078Z,0.60
2019-05-12T12:28:13.798Z,0.93
2019-05-12T12:30:47.354Z,0.93
2019-05-12T12:33:14.373Z,0.70
2019-05-12T12:35:44.489Z,0.70
2019-05-12T12:38:14.216Z,0.50
2019-05-12T12:40:44.190Z,0.80
2019-05-12T12:43:13.708Z,0.80
2019-05-12T12:46:03.710Z,0.73
2019-05-12T12:48:33.367Z,1.03
2019-05-12T12:51:03.988Z,0.80
2019-05-12T12:53:34.401Z,0.60
2019-05-12T12:56:04.328Z,0.80
2019-05-12T12:58:34.535Z,0.80
2019-05-12T13:01:04.486Z,0.60
2019-05-12T13:03:34.653Z,0.70
2019-05-12T13:06:04.781Z,0.90
2019-05-12T13:08:34.340Z,0.83
2019-05-12T13:11:04.323Z,0.70
2019-05-12T13:13:33.432Z,0.70
2019-05-12T13:16:04.124Z,0.70
2019-05-12T13:18:36.093Z,0.90
2019-05-12T13:21:03.637Z,0.90
2019-05-12T13:23:40.504Z,1.00
2019-05-12T13:26:04.277Z,0.87
2019-05-12T13:28:34.246Z,1.07
2019-05-12T13:31:09.062Z,0.60
2019-05-12T13:33:33.955Z,0.70
2019-05-12T13:36:04.289Z,1.10
2019-05-12T13:38:36.382Z,0.80
2019-05-12T13:41:04.494Z,0.70
2019-05-12T13:43:34.068Z,0.60
2019-05-12T13:46:03.986Z,1.10
2019-05-12T13:48:33.067Z,0.77
2019-05-12T13:51:10.385Z,0.67
2019-05-12T13:53:33.525Z,0.87
2019-05-12T13:56:04.697Z,0.90
2019-05-12T13:58:36.664Z,0.80
2019-05-12T14:01:19.120Z,0.90
2019-05-12T14:03:34.050Z,1.13
2019-05-12T14:06:03.666Z,0.80
2019-05-12T14:08:34.285Z,0.70
2019-05-12T14:11:03.250Z,0.80
2019-05-12T14:13:33.778Z,0.60
2019-05-12T14:16:06.517Z,0.70
2019-05-12T14:18:36.087Z,0.70
2019-05-12T14:21:04.298Z,0.70
2019-05-12T14:23:34.281Z,0.60
2019-05-12T14:26:07.516Z,0.67
2019-05-12T14:28:33.942Z,0.87
2019-05-12T14:31:03.085Z,0.80
2019-05-12T14:33:35.887Z,0.60
2019-05-12T14:36:04.091Z,0.90
2019-05-12T14:38:33.778Z,0.90
2019-05-12T14:41:09.626Z,0.70
2019-05-12T14:43:34.152Z,0.67
2019-05-12T14:46:06.289Z,0.70
2019-05-12T14:48:33.755Z,0.73
2019-05-12T14:51:03.506Z,0.63
2019-05-12T14:53:38.155Z,0.70
2019-05-12T14:56:03.937Z,0.50
2019-05-12T14:58:33.896Z,0.70
2019-05-12T15:01:03.891Z,0.60
2019-05-12T15:03:34.214Z,0.77
2019-05-12T15:06:04.752Z,1.10
2019-05-12T15:08:37.171Z,1.00
2019-05-12T15:11:04.648Z,0.60
2019-05-12T15:13:34.347Z,0.80
2019-05-12T15:16:03.625Z,0.60
2019-05-12T15:18:32.830Z,1.00
2019-05-12T15:21:03.613Z,0.90
2019-05-12T15:23:37.004Z,0.70
2019-05-12T15:26:04.323Z,0.80
2019-05-12T15:28:33.797Z,0.80
2019-05-12T15:31:03.781Z,0.93
2019-05-12T15:33:33.694Z,0.70
2019-05-12T15:36:04.669Z,0.63
2019-05-12T15:38:34.348Z,0.70
2019-05-12T15:41:04.296Z,1.00
2019-05-12T15:43:37.821Z,0.97
2019-05-12T15:46:04.289Z,0.70
2019-05-12T15:48:34.300Z,1.20
2019-05-12T15:51:05.213Z,0.90
2019-05-12T15:53:35.956Z,1.10
2019-05-12T15:56:13.903Z,1.20
2019-05-12T15:58:35.522Z,1.00
2019-05-12T16:01:04.596Z,0.90
2019-05-12T16:03:34.372Z,0.90
2019-05-12T16:06:10.093Z,1.00
2019-05-12T16:08:34.181Z,1.03
2019-05-12T16:11:05.106Z,1.00
2019-05-12T16:13:33.877Z,1.40
2019-05-12T16:16:06.128Z,1.00
2019-05-12T16:18:34.459Z,1.00
2019-05-12T16:21:06.627Z,1.10
2019-05-12T16:23:34.418Z,1.20
2019-05-12T16:26:10.305Z,0.93
2019-05-12T16:28:33.866Z,0.80
2019-05-12T16:31:07.109Z,1.10
2019-05-12T16:33:33.450Z,1.17
2019-05-12T16:36:06.576Z,1.30
2019-05-12T16:38:33.224Z,0.90
2019-05-12T16:41:03.834Z,1.07
2019-05-12T16:43:35.118Z,1.10
2019-05-12T16:46:04.412Z,1.00
2019-05-12T16:48:36.177Z,1.10
2019-05-12T16:51:04.338Z,0.80
2019-05-12T16:53:46.021Z,1.00
2019-05-12T16:56:14.916Z,1.00
2019-05-12T16:58:44.488Z,1.03
2019-05-12T17:01:14.469Z,1.10
2019-05-12T17:03:44.540Z,1.00
2019-05-12T17:06:14.298Z,0.83
2019-05-12T17:08:43.874Z,0.80
2019-05-12T17:11:24.415Z,1.00
2019-05-12T17:13:49.271Z,1.20
2019-05-12T17:16:14.980Z,1.00
2019-05-12T17:18:46.265Z,1.50
2019-05-12T17:21:17.805Z,1.33
2019-05-12T17:23:47.376Z,2.00
2019-05-12T17:26:16.236Z,1.50
2019-05-12T17:28:45.429Z,1.63
2019-05-12T17:31:14.347Z,1.23
2019-05-12T17:33:43.701Z,1.53
2019-05-12T17:36:17.575Z,0.80
2019-05-12T17:38:44.013Z,1.17
2019-05-12T17:41:17.382Z,1.47
2019-05-12T17:43:54.783Z,1.40
2019-05-12T17:46:18.108Z,2.10
2019-05-12T17:48:45.719Z,1.97
2019-05-12T17:51:20.349Z,1.53
2019-05-12T17:53:46.724Z,1.30
2019-05-12T17:56:15.818Z,1.40
2019-05-12T17:58:47.466Z,1.03
2019-05-12T18:01:15.856Z,1.70
2019-05-12T18:03:50.505Z,1.60
2019-05-12T18:06:20.452Z,1.00
2019-05-12T18:08:46.533Z,1.53
2019-05-12T18:11:16.091Z,1.33
2019-05-12T18:13:45.174Z,1.73
2019-05-12T18:16:20.408Z,1.70
2019-05-12T18:18:45.063Z,1.50
2019-05-12T18:21:21.350Z,1.53
2019-05-12T18:23:45.193Z,1.90
2019-05-12T18:26:16.033Z,1.27
2019-05-12T18:28:44.870Z,1.50
2019-05-12T18:31:14.928Z,1.53
2019-05-12T18:33:52.191Z,1.70
2019-05-12T18:36:14.557Z,1.67
2019-05-12T18:38:44.683Z,1.63
2019-05-12T18:41:14.624Z,1.63
2019-05-12T18:43:43.918Z,2.40
2019-05-12T18:46:14.062Z,2.27
2019-05-12T18:48:43.394Z,1.43
2019-05-12T18:51:16.794Z,2.10
2019-05-12T18:53:43.830Z,2.17
2019-05-12T18:56:19.855Z,1.50
2019-05-12T18:59:05.124Z,1.80
2019-05-12T19:01:39.623Z,2.43
2019-05-12T19:04:08.900Z,1.97
2019-05-12T19:06:37.780Z,1.47
2019-05-12T19:09:09.694Z,1.90
2019-05-12T19:11:41.964Z,2.00
2019-05-12T19:14:10.532Z,1.33
2019-05-12T19:16:39.532Z,2.17
2019-05-12T19:19:28.003Z,1.70
2019-05-12T19:22:04.975Z,1.93
2019-05-12T19:24:27.681Z,1.83
2019-05-12T19:26:56.543Z,1.93
2019-05-12T19:29:29.889Z,2.57
2019-05-12T19:32:06.638Z,1.90
2019-05-12T19:34:37.439Z,1.60
